sensor_id;sensor_type;location;lat;lon;timestamp;temperature;humidity
75155;HTU21D;63735;44.730;37.818;2023-10-09T00:02:09;10.51;79.37
75155;HTU21D;63735;44.730;37.818;2023-10-09T00:04:38;10.52;79.35
75155;HTU21D;63735;44.730;37.818;2023-10-09T00:07:07;10.51;79.39
75155;HTU21D;63735;44.730;37.818;2023-10-09T00:09:37;10.49;79.32
75155;HTU21D;63735;44.730;37.818;2023-10-09T00:12:21;10.51;79.27
75155;HTU21D;63735;44.730;37.818;2023-10-09T00:14:54;10.51;79.26
75155;HTU21D;63735;44.730;37.818;2023-10-09T00:17:32;10.52;79.27
75155;HTU21D;63735;44.730;37.818;2023-10-09T00:19:58;10.49;79.27
75155;HTU21D;63735;44.730;37.818;2023-10-09T00:22:44;10.46;79.29
75155;HTU21D;63735;44.730;37.818;2023-10-09T00:25:12;10.48;79.23
75155;HTU21D;63735;44.730;37.818;2023-10-09T00:27:38;10.45;79.20
75155;HTU21D;63735;44.730;37.818;2023-10-09T00:30:12;10.46;79.14
75155;HTU21D;63735;44.730;37.818;2023-10-09T00:32:44;10.48;79.10
75155;HTU21D;63735;44.730;37.818;2023-10-09T00:35:37;10.46;79.08
75155;HTU21D;63735;44.730;37.818;2023-10-09T00:38:09;10.46;79.04
75155;HTU21D;63735;44.730;37.818;2023-10-09T00:40:48;10.49;78.96
75155;HTU21D;63735;44.730;37.818;2023-10-09T00:43:21;10.48;78.95
75155;HTU21D;63735;44.730;37.818;2023-10-09T00:45:54;10.49;78.97
75155;HTU21D;63735;44.730;37.818;2023-10-09T00:48:20;10.46;79.00
75155;HTU21D;63735;44.730;37.818;2023-10-09T00:50:59;10.44;78.96
75155;HTU21D;63735;44.730;37.818;2023-10-09T00:53:27;10.48;78.86
75155;HTU21D;63735;44.730;37.818;2023-10-09T00:56:02;10.49;78.80
75155;HTU21D;63735;44.730;37.818;2023-10-09T00:58:47;10.46;78.76
75155;HTU21D;63735;44.730;37.818;2023-10-09T01:01:22;10.45;78.75
75155;HTU21D;63735;44.730;37.818;2023-10-09T01:04:03;10.48;78.64
75155;HTU21D;63735;44.730;37.818;2023-10-09T01:06:41;10.45;78.63
75155;HTU21D;63735;44.730;37.818;2023-10-09T01:09:12;10.42;78.63
75155;HTU21D;63735;44.730;37.818;2023-10-09T01:11:42;10.38;78.64
75155;HTU21D;63735;44.730;37.818;2023-10-09T01:14:30;10.35;78.63
75155;HTU21D;63735;44.730;37.818;2023-10-09T01:16:57;10.38;78.55
75155;HTU21D;63735;44.730;37.818;2023-10-09T01:19:25;10.35;78.47
75155;HTU21D;63735;44.730;37.818;2023-10-09T01:21:56;10.34;78.49
75155;HTU21D;63735;44.730;37.818;2023-10-09T01:24:39;10.35;78.43
75155;HTU21D;63735;44.730;37.818;2023-10-09T01:27:08;10.29;78.45
75155;HTU21D;63735;44.730;37.818;2023-10-09T01:29:41;10.22;78.46
75155;HTU21D;63735;44.730;37.818;2023-10-09T01:32:08;10.16;78.49
75155;HTU21D;63735;44.730;37.818;2023-10-09T01:34:43;10.11;78.50
75155;HTU21D;63735;44.730;37.818;2023-10-09T01:37:19;10.06;78.53
75155;HTU21D;63735;44.730;37.818;2023-10-09T01:39:58;10.04;78.55
75155;HTU21D;63735;44.730;37.818;2023-10-09T01:42:25;10.00;78.55
75155;HTU21D;63735;44.730;37.818;2023-10-09T01:44:54;10.00;78.51
75155;HTU21D;63735;44.730;37.818;2023-10-09T01:47:21;9.98;78.43
75155;HTU21D;63735;44.730;37.818;2023-10-09T01:49:48;9.99;78.37
75155;HTU21D;63735;44.730;37.818;2023-10-09T01:52:18;9.99;78.28
75155;HTU21D;63735;44.730;37.818;2023-10-09T01:54:47;9.98;78.24
75155;HTU21D;63735;44.730;37.818;2023-10-09T01:57:17;9.99;78.18
75155;HTU21D;63735;44.730;37.818;2023-10-09T01:59:51;10.01;78.08
75155;HTU21D;63735;44.730;37.818;2023-10-09T02:02:19;9.99;78.03
75155;HTU21D;63735;44.730;37.818;2023-10-09T02:05:00;9.94;78.14
75155;HTU21D;63735;44.730;37.818;2023-10-09T02:07:38;9.89;78.24
75155;HTU21D;63735;44.730;37.818;2023-10-09T02:10:09;9.89;78.27
75155;HTU21D;63735;44.730;37.818;2023-10-09T02:12:48;9.85;78.30
75155;HTU21D;63735;44.730;37.818;2023-10-09T02:15:26;9.83;78.36
75155;HTU21D;63735;44.730;37.818;2023-10-09T02:18:09;9.80;78.40
75155;HTU21D;63735;44.730;37.818;2023-10-09T02:20:44;9.77;78.41
75155;HTU21D;63735;44.730;37.818;2023-10-09T02:23:12;9.74;78.47
75155;HTU21D;63735;44.730;37.818;2023-10-09T02:25:56;9.75;78.51
75155;HTU21D;63735;44.730;37.818;2023-10-09T02:28:23;9.71;78.48
75155;HTU21D;63735;44.730;37.818;2023-10-09T02:30:49;9.67;78.55
75155;HTU21D;63735;44.730;37.818;2023-10-09T02:33:17;9.61;78.60
75155;HTU21D;63735;44.730;37.818;2023-10-09T02:35:56;9.54;78.71
75155;HTU21D;63735;44.730;37.818;2023-10-09T02:38:28;9.47;78.86
75155;HTU21D;63735;44.730;37.818;2023-10-09T02:40:57;9.41;78.89
75155;HTU21D;63735;44.730;37.818;2023-10-09T02:43:44;9.29;78.94
75155;HTU21D;63735;44.730;37.818;2023-10-09T02:46:18;9.18;79.14
75155;HTU21D;63735;44.730;37.818;2023-10-09T02:48:48;9.12;79.23
75155;HTU21D;63735;44.730;37.818;2023-10-09T02:51:22;9.10;79.34
75155;HTU21D;63735;44.730;37.818;2023-10-09T02:54:02;9.08;79.49
75155;HTU21D;63735;44.730;37.818;2023-10-09T02:56:51;9.04;79.49
75155;HTU21D;63735;44.730;37.818;2023-10-09T02:59:23;8.96;79.53
75155;HTU21D;63735;44.730;37.818;2023-10-09T03:01:49;8.91;79.67
75155;HTU21D;63735;44.730;37.818;2023-10-09T03:04:19;8.89;79.72
75155;HTU21D;63735;44.730;37.818;2023-10-09T03:06:46;8.89;79.80
75155;HTU21D;63735;44.730;37.818;2023-10-09T03:09:17;8.93;79.80
75155;HTU21D;63735;44.730;37.818;2023-10-09T03:11:48;9.00;79.75
75155;HTU21D;63735;44.730;37.818;2023-10-09T03:14:20;9.07;79.64
75155;HTU21D;63735;44.730;37.818;2023-10-09T03:16:47;9.09;79.60
75155;HTU21D;63735;44.730;37.818;2023-10-09T03:19:16;9.14;79.62
75155;HTU21D;63735;44.730;37.818;2023-10-09T03:21:42;9.18;79.66
75155;HTU21D;63735;44.730;37.818;2023-10-09T03:24:10;9.19;79.66
75155;HTU21D;63735;44.730;37.818;2023-10-09T03:26:37;9.20;79.73
75155;HTU21D;63735;44.730;37.818;2023-10-09T03:29:03;9.22;79.75
75155;HTU21D;63735;44.730;37.818;2023-10-09T03:31:36;9.21;79.86
75155;HTU21D;63735;44.730;37.818;2023-10-09T03:34:03;9.21;79.88
75155;HTU21D;63735;44.730;37.818;2023-10-09T03:36:29;9.20;79.86
75155;HTU21D;63735;44.730;37.818;2023-10-09T03:38:57;9.20;79.80
75155;HTU21D;63735;44.730;37.818;2023-10-09T03:41:26;9.20;79.77
75155;HTU21D;63735;44.730;37.818;2023-10-09T03:43:53;9.22;79.70
75155;HTU21D;63735;44.730;37.818;2023-10-09T03:46:21;9.23;79.66
75155;HTU21D;63735;44.730;37.818;2023-10-09T03:48:48;9.21;79.64
75155;HTU21D;63735;44.730;37.818;2023-10-09T03:51:15;9.19;79.66
75155;HTU21D;63735;44.730;37.818;2023-10-09T03:53:48;9.23;79.66
75155;HTU21D;63735;44.730;37.818;2023-10-09T03:56:14;9.27;79.60
75155;HTU21D;63735;44.730;37.818;2023-10-09T03:58:45;9.31;79.57
75155;HTU21D;63735;44.730;37.818;2023-10-09T04:01:15;9.32;79.56
75155;HTU21D;63735;44.730;37.818;2023-10-09T04:03:48;9.32;79.54
75155;HTU21D;63735;44.730;37.818;2023-10-09T04:06:14;9.31;79.62
75155;HTU21D;63735;44.730;37.818;2023-10-09T04:08:44;9.32;79.62
75155;HTU21D;63735;44.730;37.818;2023-10-09T04:11:13;9.32;79.64
75155;HTU21D;63735;44.730;37.818;2023-10-09T04:13:44;9.31;79.64
75155;HTU21D;63735;44.730;37.818;2023-10-09T04:16:12;9.30;79.68
75155;HTU21D;63735;44.730;37.818;2023-10-09T04:19:00;9.35;79.64
75155;HTU21D;63735;44.730;37.818;2023-10-09T04:21:31;9.38;79.59
75155;HTU21D;63735;44.730;37.818;2023-10-09T04:24:08;9.39;79.64
75155;HTU21D;63735;44.730;37.818;2023-10-09T04:26:34;9.41;79.58
75155;HTU21D;63735;44.730;37.818;2023-10-09T04:29:03;9.42;79.57
75155;HTU21D;63735;44.730;37.818;2023-10-09T04:31:30;9.45;79.61
75155;HTU21D;63735;44.730;37.818;2023-10-09T04:34:06;9.63;79.59
75155;HTU21D;63735;44.730;37.818;2023-10-09T04:36:58;10.21;78.56
75155;HTU21D;63735;44.730;37.818;2023-10-09T04:39:27;10.99;76.72
75155;HTU21D;63735;44.730;37.818;2023-10-09T04:42:00;12.17;73.48
75155;HTU21D;63735;44.730;37.818;2023-10-09T04:45:05;12.52;72.04
75155;HTU21D;63735;44.730;37.818;2023-10-09T04:47:34;12.25;73.21
75155;HTU21D;63735;44.730;37.818;2023-10-09T04:50:24;11.92;74.51
75155;HTU21D;63735;44.730;37.818;2023-10-09T04:52:56;11.78;75.31
75155;HTU21D;63735;44.730;37.818;2023-10-09T04:55:30;11.71;75.94
75155;HTU21D;63735;44.730;37.818;2023-10-09T04:58:04;11.78;76.23
75155;HTU21D;63735;44.730;37.818;2023-10-09T05:00:39;11.86;76.32
75155;HTU21D;63735;44.730;37.818;2023-10-09T05:03:08;11.92;76.38
75155;HTU21D;63735;44.730;37.818;2023-10-09T05:05:38;12.33;76.31
75155;HTU21D;63735;44.730;37.818;2023-10-09T05:08:12;13.37;73.65
75155;HTU21D;63735;44.730;37.818;2023-10-09T05:11:06;14.25;71.20
75155;HTU21D;63735;44.730;37.818;2023-10-09T05:13:41;15.11;69.36
75155;HTU21D;63735;44.730;37.818;2023-10-09T05:16:16;16.12;67.10
75155;HTU21D;63735;44.730;37.818;2023-10-09T05:18:52;16.79;65.08
75155;HTU21D;63735;44.730;37.818;2023-10-09T05:21:37;17.03;65.01
75155;HTU21D;63735;44.730;37.818;2023-10-09T05:24:12;17.01;65.01
75155;HTU21D;63735;44.730;37.818;2023-10-09T05:26:42;17.22;64.85
75155;HTU21D;63735;44.730;37.818;2023-10-09T05:29:12;17.47;63.95
75155;HTU21D;63735;44.730;37.818;2023-10-09T05:31:50;17.74;63.05
75155;HTU21D;63735;44.730;37.818;2023-10-09T05:34:29;18.04;62.28
75155;HTU21D;63735;44.730;37.818;2023-10-09T05:37:21;18.61;60.77
75155;HTU21D;63735;44.730;37.818;2023-10-09T05:40:07;18.65;60.09
75155;HTU21D;63735;44.730;37.818;2023-10-09T05:42:42;18.30;60.60
75155;HTU21D;63735;44.730;37.818;2023-10-09T05:45:13;17.91;61.21
75155;HTU21D;63735;44.730;37.818;2023-10-09T05:47:50;17.60;61.62
75155;HTU21D;63735;44.730;37.818;2023-10-09T07:42:47;19.82;36.70
75155;HTU21D;63735;44.730;37.818;2023-10-09T07:45:18;20.13;37.15
75155;HTU21D;63735;44.730;37.818;2023-10-09T07:47:50;20.28;37.10
75155;HTU21D;63735;44.730;37.818;2023-10-09T07:50:25;20.31;37.32
75155;HTU21D;63735;44.730;37.818;2023-10-09T07:53:07;20.35;36.51
75155;HTU21D;63735;44.730;37.818;2023-10-09T07:55:52;20.18;36.90
75155;HTU21D;63735;44.730;37.818;2023-10-09T07:58:32;19.89;37.02
75155;HTU21D;63735;44.730;37.818;2023-10-09T08:01:12;20.09;37.05
75155;HTU21D;63735;44.730;37.818;2023-10-09T08:03:42;20.36;36.80
75155;HTU21D;63735;44.730;37.818;2023-10-09T08:06:14;20.58;36.47
75155;HTU21D;63735;44.730;37.818;2023-10-09T08:08:59;20.68;36.53
75155;HTU21D;63735;44.730;37.818;2023-10-09T08:11:31;20.79;36.77
75155;HTU21D;63735;44.730;37.818;2023-10-09T08:14:07;20.94;36.75
75155;HTU21D;63735;44.730;37.818;2023-10-09T08:16:50;20.59;36.79
75155;HTU21D;63735;44.730;37.818;2023-10-09T08:19:41;20.45;37.43
75155;HTU21D;63735;44.730;37.818;2023-10-09T08:24:52;19.76;37.85
75155;HTU21D;63735;44.730;37.818;2023-10-09T08:27:24;19.20;38.79
75155;HTU21D;63735;44.730;37.818;2023-10-09T08:30:07;18.68;39.39
75155;HTU21D;63735;44.730;37.818;2023-10-09T08:32:49;18.42;40.06
75155;HTU21D;63735;44.730;37.818;2023-10-09T08:35:33;18.65;40.00
75155;HTU21D;63735;44.730;37.818;2023-10-09T08:38:00;19.03;38.92
75155;HTU21D;63735;44.730;37.818;2023-10-09T08:40:43;19.31;38.07
75155;HTU21D;63735;44.730;37.818;2023-10-09T08:43:16;19.63;37.75
75155;HTU21D;63735;44.730;37.818;2023-10-09T08:45:57;19.99;37.66
75155;HTU21D;63735;44.730;37.818;2023-10-09T08:48:27;20.31;37.24
75155;HTU21D;63735;44.730;37.818;2023-10-09T08:50:55;20.58;37.06
75155;HTU21D;63735;44.730;37.818;2023-10-09T08:53:23;20.30;37.28
75155;HTU21D;63735;44.730;37.818;2023-10-09T08:55:57;20.13;37.65
75155;HTU21D;63735;44.730;37.818;2023-10-09T08:58:24;20.24;37.62
75155;HTU21D;63735;44.730;37.818;2023-10-09T09:01:02;20.40;37.56
75155;HTU21D;63735;44.730;37.818;2023-10-09T09:03:42;20.76;37.14
75155;HTU21D;63735;44.730;37.818;2023-10-09T09:06:11;21.03;36.84
75155;HTU21D;63735;44.730;37.818;2023-10-09T09:08:37;21.22;36.21
75155;HTU21D;63735;44.730;37.818;2023-10-09T09:11:16;21.31;35.16
75155;HTU21D;63735;44.730;37.818;2023-10-09T09:16:30;20.72;34.81
75155;HTU21D;63735;44.730;37.818;2023-10-09T09:21:32;20.54;34.53
75155;HTU21D;63735;44.730;37.818;2023-10-09T09:24:08;20.60;33.96
75155;HTU21D;63735;44.730;37.818;2023-10-09T09:26:50;20.80;33.97
75155;HTU21D;63735;44.730;37.818;2023-10-09T09:32:05;21.02;33.96
75155;HTU21D;63735;44.730;37.818;2023-10-09T09:34:53;20.57;34.57
75155;HTU21D;63735;44.730;37.818;2023-10-09T09:37:32;19.56;36.29
75155;HTU21D;63735;44.730;37.818;2023-10-09T09:40:16;18.64;37.81
75155;HTU21D;63735;44.730;37.818;2023-10-09T09:43:00;17.99;39.04
75155;HTU21D;63735;44.730;37.818;2023-10-09T09:45:37;18.22;39.30
75155;HTU21D;63735;44.730;37.818;2023-10-09T09:48:04;18.92;38.97
75155;HTU21D;63735;44.730;37.818;2023-10-09T09:50:36;19.68;38.14
75155;HTU21D;63735;44.730;37.818;2023-10-09T09:53:15;19.88;37.49
75155;HTU21D;63735;44.730;37.818;2023-10-09T09:55:52;19.27;37.53
75155;HTU21D;63735;44.730;37.818;2023-10-09T09:58:21;18.56;38.04
75155;HTU21D;63735;44.730;37.818;2023-10-09T10:00:51;18.18;38.20
75155;HTU21D;63735;44.730;37.818;2023-10-09T10:03:26;18.48;37.16
75155;HTU21D;63735;44.730;37.818;2023-10-09T10:05:53;18.34;35.66
75155;HTU21D;63735;44.730;37.818;2023-10-09T10:08:23;17.85;37.22
75155;HTU21D;63735;44.730;37.818;2023-10-09T10:10:59;17.31;37.69
75155;HTU21D;63735;44.730;37.818;2023-10-09T10:18:58;16.73;39.49
75155;HTU21D;63735;44.730;37.818;2023-10-09T10:21:34;16.67;39.57
75155;HTU21D;63735;44.730;37.818;2023-10-09T10:35:18;17.84;39.19
75155;HTU21D;63735;44.730;37.818;2023-10-09T10:38:23;18.87;37.76
75155;HTU21D;63735;44.730;37.818;2023-10-09T10:40:49;19.43;36.85
75155;HTU21D;63735;44.730;37.818;2023-10-09T10:43:23;19.68;36.40
75155;HTU21D;63735;44.730;37.818;2023-10-09T10:46:08;20.26;35.31
75155;HTU21D;63735;44.730;37.818;2023-10-09T10:48:40;20.47;34.57
75155;HTU21D;63735;44.730;37.818;2023-10-09T10:51:12;20.20;34.82
75155;HTU21D;63735;44.730;37.818;2023-10-09T10:53:53;20.45;34.71
75155;HTU21D;63735;44.730;37.818;2023-10-09T10:56:25;20.64;34.83
75155;HTU21D;63735;44.730;37.818;2023-10-09T10:59:01;20.37;35.17
75155;HTU21D;63735;44.730;37.818;2023-10-09T11:01:48;19.75;35.77
75155;HTU21D;63735;44.730;37.818;2023-10-09T11:04:27;19.96;35.81
75155;HTU21D;63735;44.730;37.818;2023-10-09T11:07:02;20.17;34.58
75155;HTU21D;63735;44.730;37.818;2023-10-09T11:09:55;20.09;34.60
75155;HTU21D;63735;44.730;37.818;2023-10-09T11:15:12;19.70;34.40
75155;HTU21D;63735;44.730;37.818;2023-10-09T11:18:07;18.88;34.69
75155;HTU21D;63735;44.730;37.818;2023-10-09T11:20:34;18.32;36.35
75155;HTU21D;63735;44.730;37.818;2023-10-09T11:23:02;18.18;36.63
75155;HTU21D;63735;44.730;37.818;2023-10-09T11:25:38;18.20;36.68
75155;HTU21D;63735;44.730;37.818;2023-10-09T11:28:20;18.42;36.06
75155;HTU21D;63735;44.730;37.818;2023-10-09T11:31:06;18.80;35.50
75155;HTU21D;63735;44.730;37.818;2023-10-09T11:33:49;18.41;35.41
75155;HTU21D;63735;44.730;37.818;2023-10-09T11:36:17;17.69;35.87
75155;HTU21D;63735;44.730;37.818;2023-10-09T11:38:57;17.07;36.82
75155;HTU21D;63735;44.730;37.818;2023-10-09T11:41:40;17.48;37.23
75155;HTU21D;63735;44.730;37.818;2023-10-09T11:44:10;18.13;36.35
75155;HTU21D;63735;44.730;37.818;2023-10-09T11:46:59;17.94;36.13
75155;HTU21D;63735;44.730;37.818;2023-10-09T11:49:52;17.50;37.10
75155;HTU21D;63735;44.730;37.818;2023-10-09T11:52:31;17.19;37.65
75155;HTU21D;63735;44.730;37.818;2023-10-09T11:55:06;17.55;37.38
75155;HTU21D;63735;44.730;37.818;2023-10-09T11:57:33;17.56;37.09
75155;HTU21D;63735;44.730;37.818;2023-10-09T12:00:01;17.93;37.08
75155;HTU21D;63735;44.730;37.818;2023-10-09T12:02:32;17.65;37.43
75155;HTU21D;63735;44.730;37.818;2023-10-09T12:04:58;17.01;38.00
75155;HTU21D;63735;44.730;37.818;2023-10-09T12:07:24;16.67;38.90
75155;HTU21D;63735;44.730;37.818;2023-10-09T12:09:51;16.59;39.17
75155;HTU21D;63735;44.730;37.818;2023-10-09T12:12:22;16.75;39.09
75155;HTU21D;63735;44.730;37.818;2023-10-09T12:14:52;16.77;39.40
75155;HTU21D;63735;44.730;37.818;2023-10-09T12:17:18;17.59;39.49
75155;HTU21D;63735;44.730;37.818;2023-10-09T12:19:44;18.74;38.46
75155;HTU21D;63735;44.730;37.818;2023-10-09T12:22:10;19.38;37.27
75155;HTU21D;63735;44.730;37.818;2023-10-09T12:24:41;18.97;37.07
75155;HTU21D;63735;44.730;37.818;2023-10-09T12:27:09;18.44;37.50
75155;HTU21D;63735;44.730;37.818;2023-10-09T12:29:38;18.96;38.01
75155;HTU21D;63735;44.730;37.818;2023-10-09T12:32:10;20.19;37.10
75155;HTU21D;63735;44.730;37.818;2023-10-09T12:34:37;20.53;35.49
75155;HTU21D;63735;44.730;37.818;2023-10-09T12:37:04;19.90;35.98
75155;HTU21D;63735;44.730;37.818;2023-10-09T12:39:30;19.39;35.72
75155;HTU21D;63735;44.730;37.818;2023-10-09T12:42:00;18.56;35.81
75155;HTU21D;63735;44.730;37.818;2023-10-09T12:44:32;18.24;36.92
75155;HTU21D;63735;44.730;37.818;2023-10-09T12:47:09;18.72;36.63
75155;HTU21D;63735;44.730;37.818;2023-10-09T12:49:38;18.99;35.76
75155;HTU21D;63735;44.730;37.818;2023-10-09T12:52:07;18.67;35.87
75155;HTU21D;63735;44.730;37.818;2023-10-09T12:54:43;18.02;36.18
75155;HTU21D;63735;44.730;37.818;2023-10-09T12:57:11;17.48;36.79
75155;HTU21D;63735;44.730;37.818;2023-10-09T12:59:39;17.19;36.97
75155;HTU21D;63735;44.730;37.818;2023-10-09T13:02:14;16.92;37.99
75155;HTU21D;63735;44.730;37.818;2023-10-09T13:04:59;17.65;37.79
75155;HTU21D;63735;44.730;37.818;2023-10-09T13:07:25;17.72;37.78
75155;HTU21D;63735;44.730;37.818;2023-10-09T13:09:51;18.69;37.06
75155;HTU21D;63735;44.730;37.818;2023-10-09T13:12:37;19.90;35.67
75155;HTU21D;63735;44.730;37.818;2023-10-09T13:15:10;20.63;34.64
75155;HTU21D;63735;44.730;37.818;2023-10-09T13:17:39;21.02;34.08
75155;HTU21D;63735;44.730;37.818;2023-10-09T13:20:07;21.43;33.54
75155;HTU21D;63735;44.730;37.818;2023-10-09T13:22:42;21.61;33.26
75155;HTU21D;63735;44.730;37.818;2023-10-09T13:25:10;21.79;32.84
75155;HTU21D;63735;44.730;37.818;2023-10-09T13:27:44;21.38;32.71
75155;HTU21D;63735;44.730;37.818;2023-10-09T13:30:19;20.16;33.41
75155;HTU21D;63735;44.730;37.818;2023-10-09T13:32:49;19.25;34.49
75155;HTU21D;63735;44.730;37.818;2023-10-09T13:35:19;19.09;34.95
75155;HTU21D;63735;44.730;37.818;2023-10-09T13:37:45;19.12;35.32
75155;HTU21D;63735;44.730;37.818;2023-10-09T13:40:21;18.74;35.57
75155;HTU21D;63735;44.730;37.818;2023-10-09T13:42:54;18.97;35.51
75155;HTU21D;63735;44.730;37.818;2023-10-09T13:45:28;18.96;35.44
75155;HTU21D;63735;44.730;37.818;2023-10-09T13:47:55;18.34;35.31
75155;HTU21D;63735;44.730;37.818;2023-10-09T13:50:25;17.56;35.49
75155;HTU21D;63735;44.730;37.818;2023-10-09T13:52:55;16.88;36.10
75155;HTU21D;63735;44.730;37.818;2023-10-09T13:55:21;16.43;36.63
75155;HTU21D;63735;44.730;37.818;2023-10-09T13:57:47;16.01;37.18
75155;HTU21D;63735;44.730;37.818;2023-10-09T14:00:14;15.70;37.66
75155;HTU21D;63735;44.730;37.818;2023-10-09T14:03:01;15.38;38.24
75155;HTU21D;63735;44.730;37.818;2023-10-09T14:05:36;15.11;38.91
75155;HTU21D;63735;44.730;37.818;2023-10-09T14:08:19;14.80;39.49
75155;HTU21D;63735;44.730;37.818;2023-10-09T14:10:47;14.57;39.91
75155;HTU21D;63735;44.730;37.818;2023-10-09T14:13:15;14.36;40.36
75155;HTU21D;63735;44.730;37.818;2023-10-09T14:15:42;14.23;40.75
75155;HTU21D;63735;44.730;37.818;2023-10-09T14:18:09;14.08;41.28
75155;HTU21D;63735;44.730;37.818;2023-10-09T14:20:38;13.94;41.59
75155;HTU21D;63735;44.730;37.818;2023-10-09T14:23:03;13.84;41.79
75155;HTU21D;63735;44.730;37.818;2023-10-09T14:25:33;13.76;42.10
75155;HTU21D;63735;44.730;37.818;2023-10-09T14:28:05;13.69;42.37
75155;HTU21D;63735;44.730;37.818;2023-10-09T14:30:37;13.60;42.63
75155;HTU21D;63735;44.730;37.818;2023-10-09T14:33:10;13.51;42.90
75155;HTU21D;63735;44.730;37.818;2023-10-09T14:35:40;13.44;43.10
75155;HTU21D;63735;44.730;37.818;2023-10-09T14:38:08;13.39;43.34
75155;HTU21D;63735;44.730;37.818;2023-10-09T14:40:46;13.34;43.61
75155;HTU21D;63735;44.730;37.818;2023-10-09T14:43:13;13.27;43.66
75155;HTU21D;63735;44.730;37.818;2023-10-09T14:45:46;13.18;43.91
75155;HTU21D;63735;44.730;37.818;2023-10-09T14:48:17;13.08;44.16
75155;HTU21D;63735;44.730;37.818;2023-10-09T14:50:54;12.97;44.32
75155;HTU21D;63735;44.730;37.818;2023-10-09T14:53:23;12.93;44.41
75155;HTU21D;63735;44.730;37.818;2023-10-09T14:55:56;12.84;44.61
75155;HTU21D;63735;44.730;37.818;2023-10-09T14:58:22;12.74;44.91
75155;HTU21D;63735;44.730;37.818;2023-10-09T15:00:51;12.58;45.22
75155;HTU21D;63735;44.730;37.818;2023-10-09T15:03:18;12.53;45.38
75155;HTU21D;63735;44.730;37.818;2023-10-09T15:05:49;12.49;45.54
75155;HTU21D;63735;44.730;37.818;2023-10-09T15:08:15;12.47;45.64
75155;HTU21D;63735;44.730;37.818;2023-10-09T15:10:49;12.42;45.86
75155;HTU21D;63735;44.730;37.818;2023-10-09T15:13:17;12.35;45.93
75155;HTU21D;63735;44.730;37.818;2023-10-09T15:15:44;12.31;46.09
75155;HTU21D;63735;44.730;37.818;2023-10-09T15:18:11;12.23;46.19
75155;HTU21D;63735;44.730;37.818;2023-10-09T15:20:40;12.15;46.41
75155;HTU21D;63735;44.730;37.818;2023-10-09T15:23:09;12.04;46.69
75155;HTU21D;63735;44.730;37.818;2023-10-09T15:25:35;11.94;46.94
75155;HTU21D;63735;44.730;37.818;2023-10-09T15:28:05;11.86;47.15
75155;HTU21D;63735;44.730;37.818;2023-10-09T15:30:35;11.77;47.38
75155;HTU21D;63735;44.730;37.818;2023-10-09T15:33:05;11.71;47.60
75155;HTU21D;63735;44.730;37.818;2023-10-09T15:35:31;11.63;47.78
75155;HTU21D;63735;44.730;37.818;2023-10-09T15:38:01;11.57;47.96
75155;HTU21D;63735;44.730;37.818;2023-10-09T15:40:30;11.51;48.10
75155;HTU21D;63735;44.730;37.818;2023-10-09T15:42:59;11.48;48.24
75155;HTU21D;63735;44.730;37.818;2023-10-09T15:45:25;11.45;48.44
75155;HTU21D;63735;44.730;37.818;2023-10-09T15:47:54;11.43;48.50
75155;HTU21D;63735;44.730;37.818;2023-10-09T15:50:21;11.42;48.67
75155;HTU21D;63735;44.730;37.818;2023-10-09T15:52:53;11.41;48.67
75155;HTU21D;63735;44.730;37.818;2023-10-09T15:55:20;11.40;48.70
75155;HTU21D;63735;44.730;37.818;2023-10-09T15:57:50;11.38;48.82
75155;HTU21D;63735;44.730;37.818;2023-10-09T16:00:21;11.37;48.87
75155;HTU21D;63735;44.730;37.818;2023-10-09T16:02:48;11.30;48.98
75155;HTU21D;63735;44.730;37.818;2023-10-09T16:05:15;11.27;49.15
75155;HTU21D;63735;44.730;37.818;2023-10-09T16:07:42;11.24;49.23
75155;HTU21D;63735;44.730;37.818;2023-10-09T16:10:09;11.24;49.33
75155;HTU21D;63735;44.730;37.818;2023-10-09T16:12:38;11.23;49.37
75155;HTU21D;63735;44.730;37.818;2023-10-09T16:15:05;11.18;49.50
75155;HTU21D;63735;44.730;37.818;2023-10-09T16:17:35;11.15;49.57
75155;HTU21D;63735;44.730;37.818;2023-10-09T16:20:03;11.13;49.61
75155;HTU21D;63735;44.730;37.818;2023-10-09T16:22:39;11.10;49.63
75155;HTU21D;63735;44.730;37.818;2023-10-09T16:25:06;11.09;49.65
75155;HTU21D;63735;44.730;37.818;2023-10-09T16:27:37;11.09;49.65
75155;HTU21D;63735;44.730;37.818;2023-10-09T16:30:06;11.10;49.65
75155;HTU21D;63735;44.730;37.818;2023-10-09T16:32:38;11.11;49.72
75155;HTU21D;63735;44.730;37.818;2023-10-09T16:35:04;11.12;49.70
75155;HTU21D;63735;44.730;37.818;2023-10-09T16:37:30;11.11;49.73
75155;HTU21D;63735;44.730;37.818;2023-10-09T16:39:59;11.14;49.73
75155;HTU21D;63735;44.730;37.818;2023-10-09T16:42:31;11.14;49.67
75155;HTU21D;63735;44.730;37.818;2023-10-09T16:45:04;11.15;49.64
75155;HTU21D;63735;44.730;37.818;2023-10-09T16:47:35;11.16;49.58
75155;HTU21D;63735;44.730;37.818;2023-10-09T16:50:09;11.14;49.50
75155;HTU21D;63735;44.730;37.818;2023-10-09T16:52:35;11.16;49.40
75155;HTU21D;63735;44.730;37.818;2023-10-09T16:55:08;11.15;49.38
75155;HTU21D;63735;44.730;37.818;2023-10-09T16:57:41;11.15;49.36
75155;HTU21D;63735;44.730;37.818;2023-10-09T17:00:08;11.17;49.31
75155;HTU21D;63735;44.730;37.818;2023-10-09T17:02:39;11.18;49.27
75155;HTU21D;63735;44.730;37.818;2023-10-09T17:05:08;11.19;49.24
75155;HTU21D;63735;44.730;37.818;2023-10-09T17:07:35;11.23;49.18
75155;HTU21D;63735;44.730;37.818;2023-10-09T17:10:05;11.23;49.14
75155;HTU21D;63735;44.730;37.818;2023-10-09T17:12:43;11.24;49.08
75155;HTU21D;63735;44.730;37.818;2023-10-09T17:15:15;11.25;49.02
75155;HTU21D;63735;44.730;37.818;2023-10-09T17:17:44;11.26;49.03
75155;HTU21D;63735;44.730;37.818;2023-10-09T17:20:14;11.28;48.99
75155;HTU21D;63735;44.730;37.818;2023-10-09T17:22:40;11.28;48.99
75155;HTU21D;63735;44.730;37.818;2023-10-09T17:25:09;11.30;49.00
75155;HTU21D;63735;44.730;37.818;2023-10-09T17:27:40;11.29;49.05
75155;HTU21D;63735;44.730;37.818;2023-10-09T17:30:10;11.29;49.06
75155;HTU21D;63735;44.730;37.818;2023-10-09T17:32:37;11.31;49.08
75155;HTU21D;63735;44.730;37.818;2023-10-09T17:35:04;11.32;49.08
75155;HTU21D;63735;44.730;37.818;2023-10-09T17:37:37;11.33;49.11
75155;HTU21D;63735;44.730;37.818;2023-10-09T17:40:05;11.33;49.14
75155;HTU21D;63735;44.730;37.818;2023-10-09T17:42:33;11.33;49.15
75155;HTU21D;63735;44.730;37.818;2023-10-09T17:44:59;11.32;49.20
75155;HTU21D;63735;44.730;37.818;2023-10-09T17:47:25;11.33;49.18
75155;HTU21D;63735;44.730;37.818;2023-10-09T17:49:51;11.37;49.17
75155;HTU21D;63735;44.730;37.818;2023-10-09T17:52:17;11.37;49.11
75155;HTU21D;63735;44.730;37.818;2023-10-09T17:54:43;11.37;49.12
75155;HTU21D;63735;44.730;37.818;2023-10-09T17:57:10;11.38;49.18
75155;HTU21D;63735;44.730;37.818;2023-10-09T17:59:36;11.41;49.18
75155;HTU21D;63735;44.730;37.818;2023-10-09T18:02:03;11.43;49.19